Whitchurch (Shropshire), United Kingdom
Current Conditions -  °F | °C
As of 11:50 PM on Thursday 18 Dec 2014 (Local Time) from EGOS Reporting Station
Light Rain Light Rain  
Wind Chill: 55°   Ceiling: 1700
Heat Index: 55°   Visibility: 6mi
Dew Point: 50°   Wind: 17mph
Humidity: 82%   Direction: 240°WSW
Pressure: 29.65"   Gusts: NA
Location:  52.97°N, 2.68°W
Report Text: EGOS 182350Z AUTO 24015KT 9999 -RA BKN017/// 13/10 Q1004
Loading
Personal Weather Stations






























Interactive Weather Map New forecast layout! Learn more

10-Day Weather Forecast

Advertisements
Track Severe Weather on mobile